createdAt,value
2018-02-08T00:01:48.940Z,79.84
2018-02-08T00:04:16.928Z,79.42
2018-02-08T00:06:44.969Z,79.82
2018-02-08T00:09:13.383Z,79.54
2018-02-08T00:11:41.739Z,79.63
2018-02-08T00:14:09.827Z,79.79
2018-02-08T00:16:38.055Z,79.37
2018-02-08T00:19:10.088Z,79.52
2018-02-08T00:21:38.111Z,78.90
2018-02-08T00:24:06.126Z,79.29
2018-02-08T00:26:34.136Z,79.31
2018-02-08T00:29:02.174Z,79.29
2018-02-08T00:31:30.240Z,79.22
2018-02-08T00:33:58.258Z,79.07
2018-02-08T00:36:26.248Z,79.01
2018-02-08T00:38:54.252Z,78.97
2018-02-08T00:41:22.280Z,78.80
2018-02-08T00:43:50.359Z,78.46
2018-02-08T00:46:18.543Z,78.74
2018-02-08T00:48:46.572Z,79.07
2018-02-08T00:51:14.657Z,78.89
2018-02-08T00:53:42.776Z,78.92
2018-02-08T00:56:10.809Z,79.30
2018-02-08T00:58:38.797Z,79.31
2018-02-08T01:01:06.835Z,80.46
2018-02-08T01:03:34.830Z,80.49
2018-02-08T01:06:02.880Z,80.52
2018-02-08T01:08:30.884Z,80.60
2018-02-08T01:10:58.901Z,81.23
2018-02-08T01:13:27.016Z,81.16
2018-02-08T01:15:55.052Z,82.42
2018-02-08T01:18:23.162Z,82.11
2018-02-08T01:20:51.235Z,81.47
2018-02-08T01:23:19.267Z,81.82
2018-02-08T01:25:47.370Z,81.54
2018-02-08T01:28:15.473Z,81.41
2018-02-08T01:30:43.447Z,80.96
2018-02-08T01:33:11.489Z,81.09
2018-02-08T01:35:39.456Z,81.43
2018-02-08T01:38:07.414Z,81.54
2018-02-08T01:40:35.353Z,81.64
2018-02-08T01:43:03.523Z,81.74
2018-02-08T01:45:31.532Z,81.84
2018-02-08T01:48:00.448Z,81.93
2018-02-08T01:50:28.383Z,82.32
2018-02-08T01:52:57.226Z,82.62
2018-02-08T01:55:25.154Z,82.89
2018-02-08T01:57:53.144Z,83.15
2018-02-08T02:00:21.114Z,82.94
2018-02-08T02:02:49.157Z,83.71
2018-02-08T02:05:17.191Z,84.10
2018-02-08T02:07:45.495Z,84.70
2018-02-08T02:10:13.466Z,84.19
2018-02-08T02:12:41.956Z,84.26
2018-02-08T02:15:09.954Z,84.16
2018-02-08T02:17:37.869Z,83.36
2018-02-08T02:20:05.890Z,82.67
2018-02-08T02:22:34.419Z,82.51
2018-02-08T02:25:02.406Z,82.75
2018-02-08T02:27:30.345Z,82.58
2018-02-08T02:29:58.319Z,82.53
2018-02-08T02:32:26.247Z,82.76
2018-02-08T02:34:54.223Z,82.39
2018-02-08T02:37:22.190Z,82.03
2018-02-08T02:39:50.163Z,81.97
2018-02-08T02:42:18.125Z,82.01
2018-02-08T02:44:46.093Z,81.78
2018-02-08T02:47:14.085Z,82.13
2018-02-08T02:49:42.050Z,81.84
2018-02-08T02:52:09.998Z,81.94
2018-02-08T02:54:38.090Z,81.62
2018-02-08T02:57:06.079Z,81.59
2018-02-08T02:59:34.134Z,82.87
2018-02-08T03:02:02.036Z,83.23
2018-02-08T03:04:30.073Z,82.65
2018-02-08T03:06:58.059Z,82.47
2018-02-08T03:09:26.077Z,82.00
2018-02-08T03:11:54.018Z,82.04
2018-02-08T03:14:21.950Z,81.60
2018-02-08T03:16:49.923Z,82.04
2018-02-08T03:19:17.877Z,81.76
2018-02-08T03:21:45.913Z,81.72
2018-02-08T03:24:13.901Z,82.68
2018-02-08T03:26:41.837Z,82.46
2018-02-08T03:29:10.250Z,82.34
2018-02-08T03:31:38.363Z,81.65
2018-02-08T03:34:06.250Z,82.21
2018-02-08T03:36:34.229Z,82.02
2018-02-08T03:39:02.439Z,82.20
2018-02-08T03:41:30.358Z,82.55
2018-02-08T03:43:58.798Z,82.83
2018-02-08T03:46:26.779Z,83.50
2018-02-08T03:48:54.781Z,84.12
2018-02-08T03:51:22.751Z,83.80
2018-02-08T03:53:50.737Z,84.22
2018-02-08T03:56:18.714Z,84.03
2018-02-08T03:58:46.760Z,84.19
2018-02-08T04:01:14.754Z,84.42
2018-02-08T04:03:42.707Z,84.26
2018-02-08T04:06:10.681Z,84.29
2018-02-08T04:08:38.634Z,84.10
2018-02-08T04:11:06.644Z,83.68
2018-02-08T04:13:34.602Z,83.71
2018-02-08T04:16:02.534Z,83.50
2018-02-08T04:18:30.650Z,83.52
2018-02-08T04:20:58.618Z,83.11
2018-02-08T04:23:26.586Z,82.59
2018-02-08T04:25:55.025Z,82.04
2018-02-08T04:28:22.994Z,84.81
2018-02-08T04:30:51.036Z,86.82
2018-02-08T04:33:18.994Z,85.88
2018-02-08T04:35:46.984Z,83.94
2018-02-08T04:38:17.864Z,81.55
2018-02-08T04:40:57.823Z,80.52
2018-02-08T04:43:37.704Z,80.07
2018-02-08T04:46:17.364Z,80.79
2018-02-08T04:48:45.341Z,91.91
2018-02-08T04:51:13.310Z,86.61
2018-02-08T04:53:41.283Z,82.86
2018-02-08T04:56:09.254Z,81.53
2018-02-08T04:58:37.196Z,81.08
2018-02-08T05:01:05.155Z,81.30
2018-02-08T05:03:33.126Z,79.88
2018-02-08T05:06:01.105Z,80.60
2018-02-08T05:08:29.109Z,80.62
2018-02-08T05:10:57.031Z,80.42
2018-02-08T05:13:25.079Z,80.43
2018-02-08T05:15:53.004Z,80.70
2018-02-08T05:18:20.985Z,81.48
2018-02-08T05:20:48.953Z,81.79
2018-02-08T05:23:16.921Z,81.06
2018-02-08T05:25:44.890Z,81.31
2018-02-08T05:28:12.865Z,82.02
2018-02-08T05:30:40.817Z,82.25
2018-02-08T05:33:08.785Z,82.15
2018-02-08T05:35:36.754Z,82.69
2018-02-08T05:38:04.746Z,83.22
2018-02-08T05:40:32.746Z,83.95
2018-02-08T05:43:00.813Z,84.09
2018-02-08T05:45:28.912Z,84.47
2018-02-08T05:47:56.852Z,84.87
2018-02-08T05:50:24.853Z,84.93
2018-02-08T05:52:52.775Z,84.46
2018-02-08T05:55:20.777Z,84.18
2018-02-08T05:57:48.745Z,84.42
2018-02-08T06:00:16.772Z,84.75
2018-02-08T06:02:44.718Z,84.29
2018-02-08T06:05:12.767Z,84.63
2018-02-08T06:07:40.761Z,85.05
2018-02-08T06:10:08.734Z,85.06
2018-02-08T06:12:36.753Z,85.09
2018-02-08T06:15:04.699Z,85.18
2018-02-08T06:17:32.698Z,85.75
2018-02-08T06:20:00.663Z,85.63
2018-02-08T06:22:28.670Z,86.56
2018-02-08T06:24:56.678Z,86.44
2018-02-08T06:27:24.721Z,86.40
2018-02-08T06:29:52.820Z,86.66
2018-02-08T06:32:21.405Z,86.41
2018-02-08T06:34:49.407Z,86.60
2018-02-08T06:37:17.360Z,86.48
2018-02-08T06:39:45.329Z,86.48
2018-02-08T06:42:13.300Z,86.77
2018-02-08T06:44:41.272Z,86.68
2018-02-08T06:47:09.221Z,86.33
2018-02-08T06:49:37.429Z,86.37
2018-02-08T06:52:05.460Z,86.45
2018-02-08T06:54:33.434Z,86.55
2018-02-08T06:57:01.431Z,87.16
2018-02-08T06:59:29.447Z,87.24
2018-02-08T07:01:57.462Z,87.84
2018-02-08T07:04:25.611Z,87.88
2018-02-08T07:06:53.566Z,87.63
2018-02-08T07:09:21.563Z,87.38
2018-02-08T07:11:49.601Z,87.04
2018-02-08T07:14:17.570Z,87.51
2018-02-08T07:16:45.585Z,87.48
2018-02-08T07:19:13.563Z,86.32
2018-02-08T07:21:41.573Z,86.67
2018-02-08T07:24:09.839Z,86.34
2018-02-08T07:26:38.796Z,86.03
2018-02-08T07:29:06.841Z,88.80
2018-02-08T07:31:34.873Z,90.79
2018-02-08T07:34:02.996Z,87.51
2018-02-08T07:36:31.035Z,86.68
2018-02-08T07:38:59.042Z,86.18
2018-02-08T07:41:27.133Z,85.84
2018-02-08T07:43:55.156Z,86.74
2018-02-08T07:46:23.209Z,86.62
2018-02-08T07:48:51.165Z,86.73
2018-02-08T07:51:19.165Z,87.04
2018-02-08T07:53:47.156Z,86.64
2018-02-08T07:56:15.153Z,86.94
2018-02-08T07:58:43.109Z,86.09
2018-02-08T08:01:11.081Z,86.16
2018-02-08T08:03:39.167Z,85.55
2018-02-08T08:06:07.144Z,85.50
2018-02-08T08:08:35.092Z,85.42
2018-02-08T08:11:03.313Z,85.50
2018-02-08T08:13:31.418Z,86.11
2018-02-08T08:15:59.352Z,84.99
2018-02-08T08:18:27.321Z,84.55
2018-02-08T08:20:55.364Z,84.05
2018-02-08T08:23:23.375Z,84.35
2018-02-08T08:25:51.400Z,84.32
2018-02-08T08:28:19.480Z,83.89
2018-02-08T08:30:47.879Z,83.87
2018-02-08T08:33:16.243Z,83.68
2018-02-08T08:35:44.912Z,82.90
2018-02-08T08:38:13.010Z,82.82
2018-02-08T08:40:41.505Z,81.82
2018-02-08T08:43:09.817Z,82.11
2018-02-08T08:45:37.921Z,81.46
2018-02-08T08:48:06.157Z,81.68
2018-02-08T08:50:34.156Z,80.57
2018-02-08T08:53:02.963Z,80.89
2018-02-08T08:55:31.182Z,81.08
2018-02-08T08:58:00.913Z,80.31
2018-02-08T09:00:29.020Z,79.23
2018-02-08T09:02:57.007Z,79.06
2018-02-08T09:05:26.276Z,79.24
2018-02-08T09:07:55.194Z,79.69
2018-02-08T09:10:23.820Z,77.91
2018-02-08T09:12:51.837Z,78.27
2018-02-08T09:15:19.804Z,77.16
2018-02-08T09:17:48.190Z,76.74
2018-02-08T09:20:16.252Z,75.79
2018-02-08T09:22:44.988Z,76.04
2018-02-08T09:25:13.172Z,76.05
2018-02-08T09:27:41.154Z,75.25
2018-02-08T09:30:09.194Z,74.67
2018-02-08T09:32:37.393Z,74.42
2018-02-08T09:35:05.483Z,73.55
2018-02-08T09:37:33.617Z,73.44
2018-02-08T09:40:01.799Z,74.65
2018-02-08T09:42:29.931Z,72.67
2018-02-08T09:44:57.996Z,72.77
2018-02-08T09:47:26.051Z,72.11
2018-02-08T09:49:54.196Z,73.24
2018-02-08T09:52:22.327Z,72.59
2018-02-08T09:54:50.479Z,72.29
2018-02-08T09:57:18.486Z,71.10
2018-02-08T09:59:46.536Z,70.48
2018-02-08T10:02:14.990Z,68.97
2018-02-08T10:04:43.074Z,69.71
2018-02-08T10:07:11.098Z,69.42
2018-02-08T10:09:39.081Z,69.81
2018-02-08T10:12:07.491Z,69.64
2018-02-08T10:14:35.815Z,69.36
2018-02-08T10:17:03.877Z,68.84
2018-02-08T10:19:31.921Z,69.68
2018-02-08T10:22:00.922Z,68.68
2018-02-08T10:24:29.383Z,70.33
2018-02-08T10:26:57.671Z,70.77
2018-02-08T10:29:25.784Z,68.06
2018-02-08T10:31:53.929Z,67.25
2018-02-08T10:34:22.171Z,66.83
2018-02-08T10:36:50.287Z,66.02
2018-02-08T10:39:18.404Z,65.56
2018-02-08T10:41:46.516Z,63.69
2018-02-08T10:44:14.556Z,61.23
2018-02-08T10:46:42.731Z,61.11
2018-02-08T10:49:10.803Z,60.37
2018-02-08T10:51:38.861Z,58.23
2018-02-08T10:54:06.889Z,57.21
2018-02-08T10:56:35.114Z,57.23
2018-02-08T10:59:03.097Z,56.57
2018-02-08T11:01:31.108Z,58.17
2018-02-08T11:03:59.073Z,55.25
2018-02-08T11:06:27.033Z,56.62
2018-02-08T11:08:54.979Z,58.43
2018-02-08T11:11:22.979Z,56.83
2018-02-08T11:13:51.004Z,57.39
2018-02-08T11:16:18.965Z,57.31
2018-02-08T11:18:46.903Z,59.46
2018-02-08T11:21:14.872Z,60.30
2018-02-08T11:23:42.844Z,59.51
2018-02-08T11:26:10.780Z,59.65
2018-02-08T11:28:38.914Z,60.46
2018-02-08T11:31:06.920Z,60.70
2018-02-08T11:33:34.925Z,61.02
2018-02-08T11:36:02.941Z,60.51
2018-02-08T11:38:30.905Z,60.34
2018-02-08T11:40:58.842Z,61.87
2018-02-08T11:43:26.945Z,61.10
2018-02-08T11:45:54.915Z,61.25
2018-02-08T11:48:23.811Z,60.98
2018-02-08T11:50:51.758Z,59.62
2018-02-08T11:53:19.861Z,61.73
2018-02-08T11:55:47.846Z,60.13
2018-02-08T11:58:15.856Z,60.94
2018-02-08T12:00:43.905Z,62.45
2018-02-08T12:03:12.006Z,61.03
2018-02-08T12:05:39.945Z,61.54
2018-02-08T12:08:07.950Z,60.93
2018-02-08T12:10:35.978Z,60.99
2018-02-08T12:13:04.097Z,62.41
2018-02-08T12:15:32.502Z,60.53
2018-02-08T12:18:00.741Z,60.70
2018-02-08T12:20:30.185Z,61.04
2018-02-08T12:22:58.250Z,59.50
2018-02-08T12:25:26.536Z,59.89
2018-02-08T12:27:56.176Z,60.83
2018-02-08T12:30:24.213Z,59.28
2018-02-08T12:32:53.362Z,61.32
2018-02-08T12:35:21.456Z,60.83
2018-02-08T12:37:49.608Z,62.57
2018-02-08T12:40:17.656Z,61.25
2018-02-08T12:42:45.655Z,63.21
2018-02-08T12:45:13.818Z,61.62
2018-02-08T12:47:41.952Z,61.26
2018-02-08T12:50:09.889Z,60.64
2018-02-08T12:52:37.940Z,58.72
2018-02-08T12:55:05.931Z,61.65
2018-02-08T12:57:33.930Z,60.02
2018-02-08T13:00:01.915Z,61.41
2018-02-08T13:02:30.015Z,60.64
2018-02-08T13:04:57.999Z,59.86
2018-02-08T13:07:26.262Z,59.42
2018-02-08T13:09:54.452Z,60.26
2018-02-08T13:12:22.496Z,61.31
2018-02-08T13:14:50.535Z,59.93
2018-02-08T13:17:18.656Z,59.85
2018-02-08T13:19:46.895Z,62.73
2018-02-08T13:22:16.399Z,61.15
2018-02-08T13:24:44.334Z,64.10
2018-02-08T13:27:12.354Z,61.04
2018-02-08T13:29:40.297Z,62.79
2018-02-08T13:32:09.195Z,62.87
2018-02-08T13:34:38.419Z,62.21
2018-02-08T13:37:06.512Z,61.83
2018-02-08T13:39:37.241Z,63.05
2018-02-08T13:42:23.106Z,62.45
2018-02-08T13:44:51.259Z,63.63
2018-02-08T13:47:24.938Z,63.31
2018-02-08T13:50:01.408Z,62.70
2018-02-08T13:52:35.095Z,62.97
2018-02-08T13:55:06.808Z,62.28
2018-02-08T13:57:37.338Z,61.56
2018-02-08T14:00:10.959Z,61.67
2018-02-08T14:02:39.010Z,61.75
2018-02-08T14:05:06.965Z,62.04
2018-02-08T14:07:36.635Z,61.36
2018-02-08T14:10:04.967Z,62.38
2018-02-08T14:12:33.102Z,61.39
2018-02-08T14:15:01.070Z,63.53
2018-02-08T14:17:29.078Z,64.69
2018-02-08T14:19:57.178Z,64.61
2018-02-08T14:22:25.152Z,63.69
2018-02-08T14:24:53.239Z,62.55
2018-02-08T14:27:22.239Z,64.25
2018-02-08T14:29:50.251Z,61.96
2018-02-08T14:32:18.335Z,65.01
2018-02-08T14:34:46.302Z,64.83
2018-02-08T14:37:14.448Z,63.15
2018-02-08T14:39:42.489Z,63.70
2018-02-08T14:42:10.503Z,63.76
2018-02-08T14:44:38.455Z,63.65
2018-02-08T14:47:06.728Z,64.72
2018-02-08T14:49:34.808Z,63.79
2018-02-08T14:52:02.742Z,64.07
2018-02-08T14:54:30.754Z,63.31
2018-02-08T14:56:59.232Z,64.92
2018-02-08T14:59:27.222Z,63.70
2018-02-08T15:01:55.192Z,63.29
2018-02-08T15:04:23.213Z,63.78
2018-02-08T15:06:51.296Z,64.28
2018-02-08T15:09:19.487Z,63.91
2018-02-08T15:11:47.596Z,64.54
2018-02-08T15:14:15.692Z,64.45
2018-02-08T15:16:43.663Z,63.44
2018-02-08T15:19:11.738Z,63.94
2018-02-08T15:21:39.927Z,64.58
2018-02-08T15:24:13.828Z,63.16
2018-02-08T15:26:42.231Z,61.76
2018-02-08T15:29:10.332Z,63.52
2018-02-08T15:31:38.471Z,63.46
2018-02-08T15:34:06.512Z,62.31
2018-02-08T15:36:34.556Z,61.38
2018-02-08T15:39:02.676Z,62.29
2018-02-08T15:41:30.699Z,62.09
2018-02-08T15:43:58.781Z,62.54
2018-02-08T15:46:26.733Z,62.65
2018-02-08T15:48:54.791Z,62.55
2018-02-08T15:51:22.818Z,62.79
2018-02-08T15:53:50.797Z,62.57
2018-02-08T15:56:18.858Z,62.47
2018-02-08T15:58:46.897Z,63.40
2018-02-08T16:01:14.983Z,64.10
2018-02-08T16:03:42.979Z,64.43
2018-02-08T16:06:11.857Z,65.12
2018-02-08T16:08:40.827Z,65.28
2018-02-08T16:11:08.873Z,65.73
2018-02-08T16:13:37.000Z,65.98
2018-02-08T16:16:05.143Z,66.87
2018-02-08T16:18:34.058Z,66.81
2018-02-08T16:21:02.032Z,66.73
2018-02-08T16:23:30.075Z,67.17
2018-02-08T16:25:58.467Z,67.07
2018-02-08T16:28:26.425Z,66.99
2018-02-08T16:30:54.394Z,66.91
2018-02-08T16:33:22.430Z,67.43
2018-02-08T16:35:50.462Z,67.39
2018-02-08T16:38:18.544Z,67.13
2018-02-08T16:40:46.517Z,67.27
2018-02-08T16:43:14.553Z,67.46
2018-02-08T16:45:42.600Z,67.74
2018-02-08T16:48:10.596Z,68.50
2018-02-08T16:50:38.566Z,67.86
2018-02-08T16:53:06.561Z,67.62
2018-02-08T16:55:34.562Z,68.05
2018-02-08T16:58:02.578Z,67.92
2018-02-08T17:00:30.602Z,68.25
2018-02-08T17:02:58.586Z,68.67
2018-02-08T17:05:26.589Z,69.32
2018-02-08T17:07:54.625Z,68.71
2018-02-08T17:10:22.691Z,68.67
2018-02-08T17:12:50.642Z,69.20
2018-02-08T17:15:18.654Z,69.36
2018-02-08T17:17:46.600Z,69.11
2018-02-08T17:20:14.636Z,69.03
2018-02-08T17:22:42.579Z,69.87
2018-02-08T17:25:10.547Z,69.89
2018-02-08T17:27:38.883Z,70.16
2018-02-08T17:30:06.882Z,70.45
2018-02-08T17:32:34.855Z,70.65
2018-02-08T17:35:02.855Z,70.73
2018-02-08T17:37:30.822Z,70.72
2018-02-08T17:39:58.858Z,70.68
2018-02-08T17:42:26.811Z,70.69
2018-02-08T17:44:55.260Z,70.71
2018-02-08T17:47:23.268Z,71.91
2018-02-08T17:49:51.231Z,71.88
2018-02-08T17:52:19.209Z,72.07
2018-02-08T17:54:47.865Z,72.03
2018-02-08T17:57:15.882Z,72.62
2018-02-08T17:59:43.894Z,72.78
2018-02-08T18:02:11.927Z,72.70
2018-02-08T18:04:39.922Z,72.84
2018-02-08T18:07:08.027Z,73.07
2018-02-08T18:09:35.996Z,72.68
2018-02-08T18:12:03.958Z,73.41
2018-02-08T18:14:32.030Z,72.96
2018-02-08T18:16:59.985Z,73.42
2018-02-08T18:19:27.966Z,72.99
2018-02-08T18:21:55.979Z,73.14
2018-02-08T18:24:23.944Z,72.89
2018-02-08T18:26:51.957Z,72.88
2018-02-08T18:29:20.055Z,72.91
2018-02-08T18:31:48.028Z,72.93
2018-02-08T18:34:16.144Z,72.85
2018-02-08T18:36:44.160Z,73.30
2018-02-08T18:39:12.229Z,72.81
2018-02-08T18:41:40.244Z,73.38
2018-02-08T18:44:08.195Z,72.77
2018-02-08T18:46:36.153Z,73.17
2018-02-08T18:49:04.808Z,72.81
2018-02-08T18:51:33.081Z,72.87
2018-02-08T18:54:01.161Z,72.48
2018-02-08T18:56:29.302Z,72.34
2018-02-08T18:58:57.358Z,72.76
2018-02-08T19:01:25.398Z,72.92
2018-02-08T19:03:53.470Z,72.91
2018-02-08T19:06:21.398Z,73.18
2018-02-08T19:08:49.431Z,73.48
2018-02-08T19:11:17.420Z,74.07
2018-02-08T19:13:45.421Z,74.41
2018-02-08T19:16:13.564Z,74.14
2018-02-08T19:18:41.504Z,74.36
2018-02-08T19:21:09.505Z,74.70
2018-02-08T19:23:37.708Z,74.99
2018-02-08T19:26:05.696Z,75.14
2018-02-08T19:28:33.771Z,75.72
2018-02-08T19:31:02.109Z,76.18
2018-02-08T19:33:30.057Z,76.47
2018-02-08T19:35:58.128Z,76.11
2018-02-08T19:38:26.362Z,76.57
2018-02-08T19:40:54.402Z,76.37
2018-02-08T19:43:22.402Z,76.41
2018-02-08T19:45:50.536Z,76.24
2018-02-08T19:48:18.672Z,76.57
2018-02-08T19:50:46.869Z,76.45
2018-02-08T19:53:14.903Z,76.76
2018-02-08T19:55:42.905Z,76.69
2018-02-08T19:58:10.831Z,77.18
2018-02-08T20:00:38.807Z,76.76
2018-02-08T20:03:06.739Z,76.59
2018-02-08T20:05:34.707Z,76.34
2018-02-08T20:08:02.688Z,76.93
2018-02-08T20:10:30.685Z,77.17
2018-02-08T20:12:58.642Z,77.17
2018-02-08T20:15:30.206Z,77.55
2018-02-08T20:17:58.175Z,77.91
2018-02-08T20:20:26.142Z,78.26
2018-02-08T20:22:54.129Z,77.91
2018-02-08T20:25:36.957Z,78.22
2018-02-08T20:28:05.099Z,78.15
2018-02-08T20:30:33.072Z,78.06
2018-02-08T20:33:01.013Z,78.62
2018-02-08T20:35:28.979Z,78.39
2018-02-08T20:37:56.993Z,78.52
2018-02-08T20:40:25.554Z,78.51
2018-02-08T20:42:59.113Z,78.30
2018-02-08T20:45:27.060Z,78.53
2018-02-08T20:47:55.194Z,78.47
2018-02-08T20:50:23.330Z,78.81
2018-02-08T20:52:51.414Z,78.72
2018-02-08T20:55:19.534Z,78.72
2018-02-08T20:57:47.550Z,78.66
2018-02-08T21:00:15.530Z,78.79
2018-02-08T21:02:43.538Z,78.66
2018-02-08T21:05:11.617Z,78.59
2018-02-08T21:07:39.778Z,78.79
2018-02-08T21:10:07.774Z,78.88
2018-02-08T21:12:35.735Z,78.53
2018-02-08T21:15:03.711Z,78.82
2018-02-08T21:17:31.848Z,78.89
2018-02-08T21:19:59.879Z,79.11
2018-02-08T21:22:27.818Z,78.92
2018-02-08T21:24:55.884Z,79.14
2018-02-08T21:27:23.875Z,79.45
2018-02-08T21:29:51.858Z,79.61
2018-02-08T21:32:19.901Z,79.24
2018-02-08T21:34:47.869Z,79.43
2018-02-08T21:37:15.938Z,78.85
2018-02-08T21:39:43.913Z,78.98
2018-02-08T21:42:12.307Z,78.88
2018-02-08T21:44:40.306Z,78.70
2018-02-08T21:47:08.233Z,79.32
2018-02-08T21:49:36.309Z,79.36
2018-02-08T21:52:04.384Z,79.27
2018-02-08T21:54:33.271Z,79.00
2018-02-08T21:57:01.248Z,78.86
2018-02-08T21:59:29.556Z,79.32
2018-02-08T22:01:57.533Z,79.21
2018-02-08T22:04:25.771Z,78.64
2018-02-08T22:06:53.737Z,78.86
2018-02-08T22:09:22.350Z,79.46
2018-02-08T22:11:50.537Z,79.69
2018-02-08T22:14:18.462Z,79.76
2018-02-08T22:16:46.436Z,79.72
2018-02-08T22:19:14.477Z,79.85
2018-02-08T22:21:42.423Z,80.18
2018-02-08T22:24:11.196Z,80.11
2018-02-08T22:26:39.147Z,80.01
2018-02-08T22:29:07.230Z,80.46
2018-02-08T22:31:35.277Z,80.14
2018-02-08T22:34:03.619Z,81.16
2018-02-08T22:36:31.658Z,81.18
2018-02-08T22:38:59.896Z,80.38
2018-02-08T22:41:27.932Z,80.57
2018-02-08T22:43:55.888Z,80.85
2018-02-08T22:46:24.843Z,80.57
2018-02-08T22:48:52.836Z,80.87
2018-02-08T22:51:21.605Z,80.60
2018-02-08T22:53:50.264Z,80.92
2018-02-08T22:56:18.313Z,80.98
2018-02-08T22:58:46.557Z,80.85
2018-02-08T23:01:14.889Z,80.81
2018-02-08T23:03:42.973Z,80.85
2018-02-08T23:06:11.910Z,81.02
2018-02-08T23:08:40.016Z,81.14
2018-02-08T23:11:08.167Z,81.36
2018-02-08T23:13:36.123Z,80.93
2018-02-08T23:16:05.625Z,81.05
2018-02-08T23:18:33.649Z,80.43
2018-02-08T23:21:01.754Z,80.66
2018-02-08T23:23:30.456Z,80.54
2018-02-08T23:25:58.540Z,80.45
2018-02-08T23:28:26.647Z,80.51
2018-02-08T23:30:54.597Z,80.69
2018-02-08T23:33:22.565Z,80.90
2018-02-08T23:35:50.577Z,80.32
2018-02-08T23:38:19.393Z,80.40
2018-02-08T23:40:47.374Z,80.78
2018-02-08T23:43:15.330Z,80.56
2018-02-08T23:45:43.273Z,80.93
2018-02-08T23:48:11.967Z,81.14
2018-02-08T23:50:40.186Z,81.03
2018-02-08T23:53:08.129Z,81.31
2018-02-08T23:55:36.053Z,80.95
2018-02-08T23:58:04.110Z,80.50
